sensor_id;sensor_type;location;lat;lon;timestamp;P1;durP1;ratioP1;P2;durP2;ratioP2
76380;SDS011;65202;52.520;10.528;2023-03-14T00:00:16;9.48;;;3.40;;
76380;SDS011;65202;52.520;10.528;2023-03-14T00:02:44;6.30;;;2.70;;
76380;SDS011;65202;52.520;10.528;2023-03-14T00:05:12;6.32;;;2.70;;
76380;SDS011;65202;52.520;10.528;2023-03-14T00:07:39;7.40;;;2.88;;
76380;SDS011;65202;52.520;10.528;2023-03-14T00:10:09;5.57;;;2.60;;
76380;SDS011;65202;52.520;10.528;2023-03-14T00:12:40;3.60;;;2.60;;
76380;SDS011;65202;52.520;10.528;2023-03-14T00:15:09;5.47;;;2.63;;
76380;SDS011;65202;52.520;10.528;2023-03-14T00:17:37;5.75;;;2.85;;
76380;SDS011;65202;52.520;10.528;2023-03-14T00:20:05;3.75;;;2.47;;
76380;SDS011;65202;52.520;10.528;2023-03-14T00:22:38;4.18;;;2.25;;
76380;SDS011;65202;52.520;10.528;2023-03-14T00:25:06;4.70;;;2.10;;
76380;SDS011;65202;52.520;10.528;2023-03-14T00:27:36;8.88;;;2.10;;
76380;SDS011;65202;52.520;10.528;2023-03-14T00:30:04;4.13;;;2.00;;
76380;SDS011;65202;52.520;10.528;2023-03-14T00:32:34;5.45;;;2.00;;
76380;SDS011;65202;52.520;10.528;2023-03-14T00:35:02;4.90;;;2.20;;
76380;SDS011;65202;52.520;10.528;2023-03-14T00:37:30;3.92;;;1.92;;
76380;SDS011;65202;52.520;10.528;2023-03-14T00:39:57;4.45;;;2.20;;
76380;SDS011;65202;52.520;10.528;2023-03-14T00:42:25;4.25;;;2.15;;
76380;SDS011;65202;52.520;10.528;2023-03-14T00:44:52;4.13;;;2.10;;
76380;SDS011;65202;52.520;10.528;2023-03-14T00:47:19;3.78;;;1.95;;
76380;SDS011;65202;52.520;10.528;2023-03-14T00:49:47;4.13;;;2.25;;
76380;SDS011;65202;52.520;10.528;2023-03-14T00:52:14;6.65;;;2.63;;
76380;SDS011;65202;52.520;10.528;2023-03-14T00:54:41;5.20;;;2.10;;
76380;SDS011;65202;52.520;10.528;2023-03-14T00:57:09;5.25;;;1.88;;
76380;SDS011;65202;52.520;10.528;2023-03-14T00:59:36;4.22;;;2.40;;
76380;SDS011;65202;52.520;10.528;2023-03-14T01:02:03;3.80;;;2.10;;
76380;SDS011;65202;52.520;10.528;2023-03-14T01:04:30;3.35;;;2.10;;
76380;SDS011;65202;52.520;10.528;2023-03-14T01:06:58;4.78;;;2.20;;
76380;SDS011;65202;52.520;10.528;2023-03-14T01:09:25;3.60;;;1.90;;
76380;SDS011;65202;52.520;10.528;2023-03-14T01:11:52;4.22;;;2.08;;
76380;SDS011;65202;52.520;10.528;2023-03-14T01:14:19;3.55;;;1.70;;
76380;SDS011;65202;52.520;10.528;2023-03-14T01:16:46;2.80;;;1.83;;
76380;SDS011;65202;52.520;10.528;2023-03-14T01:19:13;6.82;;;2.10;;
76380;SDS011;65202;52.520;10.528;2023-03-14T01:21:41;5.72;;;2.20;;
76380;SDS011;65202;52.520;10.528;2023-03-14T01:24:10;4.95;;;2.13;;
76380;SDS011;65202;52.520;10.528;2023-03-14T01:26:38;6.90;;;1.88;;
76380;SDS011;65202;52.520;10.528;2023-03-14T01:29:05;2.72;;;1.80;;
76380;SDS011;65202;52.520;10.528;2023-03-14T01:31:32;4.78;;;1.95;;
76380;SDS011;65202;52.520;10.528;2023-03-14T01:34:00;3.40;;;1.80;;
76380;SDS011;65202;52.520;10.528;2023-03-14T01:36:27;8.82;;;2.45;;
76380;SDS011;65202;52.520;10.528;2023-03-14T01:38:57;4.50;;;1.95;;
76380;SDS011;65202;52.520;10.528;2023-03-14T01:41:25;3.33;;;2.00;;
76380;SDS011;65202;52.520;10.528;2023-03-14T01:43:53;5.43;;;1.90;;
76380;SDS011;65202;52.520;10.528;2023-03-14T01:46:22;6.88;;;1.90;;
76380;SDS011;65202;52.520;10.528;2023-03-14T01:51:35;5.47;;;2.10;;
76380;SDS011;65202;52.520;10.528;2023-03-14T01:54:16;3.90;;;1.80;;
76380;SDS011;65202;52.520;10.528;2023-03-14T01:56:53;7.28;;;1.70;;
76380;SDS011;65202;52.520;10.528;2023-03-14T01:59:31;5.63;;;1.95;;
76380;SDS011;65202;52.520;10.528;2023-03-14T02:02:01;4.07;;;1.83;;
76380;SDS011;65202;52.520;10.528;2023-03-14T02:04:30;4.88;;;1.90;;
76380;SDS011;65202;52.520;10.528;2023-03-14T02:07:09;2.73;;;1.50;;
76380;SDS011;65202;52.520;10.528;2023-03-14T02:09:57;5.15;;;1.73;;
76380;SDS011;65202;52.520;10.528;2023-03-14T02:12:25;7.93;;;1.60;;
76380;SDS011;65202;52.520;10.528;2023-03-14T02:14:54;7.35;;;1.83;;
76380;SDS011;65202;52.520;10.528;2023-03-14T02:17:21;5.22;;;1.80;;
76380;SDS011;65202;52.520;10.528;2023-03-14T02:22:39;4.75;;;1.80;;
76380;SDS011;65202;52.520;10.528;2023-03-14T02:25:16;4.35;;;1.70;;
76380;SDS011;65202;52.520;10.528;2023-03-14T02:27:58;4.28;;;1.70;;
76380;SDS011;65202;52.520;10.528;2023-03-14T02:30:27;3.47;;;1.60;;
76380;SDS011;65202;52.520;10.528;2023-03-14T02:33:02;3.80;;;1.73;;
76380;SDS011;65202;52.520;10.528;2023-03-14T02:35:40;4.43;;;1.60;;
76380;SDS011;65202;52.520;10.528;2023-03-14T02:41:38;2.97;;;1.83;;
76380;SDS011;65202;52.520;10.528;2023-03-14T02:44:05;5.47;;;1.90;;
76380;SDS011;65202;52.520;10.528;2023-03-14T02:46:33;2.35;;;1.55;;
76380;SDS011;65202;52.520;10.528;2023-03-14T02:49:04;3.75;;;1.60;;
76380;SDS011;65202;52.520;10.528;2023-03-14T02:51:37;6.32;;;1.50;;
76380;SDS011;65202;52.520;10.528;2023-03-14T02:54:07;3.83;;;1.45;;
76380;SDS011;65202;52.520;10.528;2023-03-14T02:56:34;4.97;;;1.65;;
76380;SDS011;65202;52.520;10.528;2023-03-14T02:59:02;3.65;;;1.70;;
76380;SDS011;65202;52.520;10.528;2023-03-14T03:01:31;5.68;;;2.33;;
76380;SDS011;65202;52.520;10.528;2023-03-14T03:03:58;3.08;;;1.40;;
76380;SDS011;65202;52.520;10.528;2023-03-14T03:06:25;4.85;;;1.40;;
76380;SDS011;65202;52.520;10.528;2023-03-14T03:08:53;2.88;;;1.40;;
76380;SDS011;65202;52.520;10.528;2023-03-14T03:11:20;3.92;;;1.35;;
76380;SDS011;65202;52.520;10.528;2023-03-14T03:13:47;4.97;;;1.55;;
76380;SDS011;65202;52.520;10.528;2023-03-14T03:16:14;5.35;;;1.88;;
76380;SDS011;65202;52.520;10.528;2023-03-14T03:18:42;4.20;;;1.70;;
76380;SDS011;65202;52.520;10.528;2023-03-14T03:21:09;2.58;;;1.40;;
76380;SDS011;65202;52.520;10.528;2023-03-14T03:23:36;4.65;;;1.60;;
76380;SDS011;65202;52.520;10.528;2023-03-14T03:26:03;5.05;;;1.25;;
76380;SDS011;65202;52.520;10.528;2023-03-14T03:28:31;4.03;;;1.27;;
76380;SDS011;65202;52.520;10.528;2023-03-14T03:30:58;6.55;;;1.55;;
76380;SDS011;65202;52.520;10.528;2023-03-14T03:33:25;3.97;;;1.40;;
76380;SDS011;65202;52.520;10.528;2023-03-14T03:35:53;5.13;;;1.60;;
76380;SDS011;65202;52.520;10.528;2023-03-14T03:38:20;5.82;;;1.40;;
76380;SDS011;65202;52.520;10.528;2023-03-14T03:40:47;4.13;;;1.52;;
76380;SDS011;65202;52.520;10.528;2023-03-14T03:43:15;5.88;;;1.45;;
76380;SDS011;65202;52.520;10.528;2023-03-14T03:45:42;5.95;;;1.60;;
76380;SDS011;65202;52.520;10.528;2023-03-14T03:48:09;3.20;;;1.33;;
76380;SDS011;65202;52.520;10.528;2023-03-14T03:50:36;4.40;;;1.35;;
76380;SDS011;65202;52.520;10.528;2023-03-14T03:53:03;5.65;;;1.42;;
76380;SDS011;65202;52.520;10.528;2023-03-14T03:55:31;3.67;;;1.40;;
76380;SDS011;65202;52.520;10.528;2023-03-14T03:57:58;4.38;;;1.65;;
76380;SDS011;65202;52.520;10.528;2023-03-14T04:00:25;2.70;;;1.20;;
76380;SDS011;65202;52.520;10.528;2023-03-14T04:02:52;4.03;;;1.52;;
76380;SDS011;65202;52.520;10.528;2023-03-14T04:05:20;4.43;;;1.40;;
76380;SDS011;65202;52.520;10.528;2023-03-14T04:07:47;4.28;;;1.35;;
76380;SDS011;65202;52.520;10.528;2023-03-14T04:10:14;4.78;;;1.20;;
76380;SDS011;65202;52.520;10.528;2023-03-14T04:12:41;4.57;;;1.40;;
76380;SDS011;65202;52.520;10.528;2023-03-14T04:15:09;4.30;;;1.20;;
76380;SDS011;65202;52.520;10.528;2023-03-14T04:17:37;4.20;;;1.15;;
76380;SDS011;65202;52.520;10.528;2023-03-14T04:20:04;11.88;;;1.33;;
76380;SDS011;65202;52.520;10.528;2023-03-14T04:22:32;4.88;;;1.60;;
76380;SDS011;65202;52.520;10.528;2023-03-14T04:24:59;4.32;;;1.60;;
76380;SDS011;65202;52.520;10.528;2023-03-14T04:27:26;5.40;;;1.38;;
76380;SDS011;65202;52.520;10.528;2023-03-14T04:29:53;5.55;;;1.30;;
76380;SDS011;65202;52.520;10.528;2023-03-14T04:32:21;5.57;;;1.40;;
76380;SDS011;65202;52.520;10.528;2023-03-14T04:34:48;6.65;;;1.60;;
76380;SDS011;65202;52.520;10.528;2023-03-14T04:37:15;5.55;;;1.25;;
76380;SDS011;65202;52.520;10.528;2023-03-14T04:39:42;5.40;;;1.38;;
76380;SDS011;65202;52.520;10.528;2023-03-14T04:42:10;6.07;;;1.50;;
76380;SDS011;65202;52.520;10.528;2023-03-14T04:44:37;5.18;;;1.40;;
76380;SDS011;65202;52.520;10.528;2023-03-14T04:47:04;6.88;;;1.70;;
76380;SDS011;65202;52.520;10.528;2023-03-14T04:49:31;4.20;;;1.48;;
76380;SDS011;65202;52.520;10.528;2023-03-14T04:51:58;5.78;;;1.60;;
76380;SDS011;65202;52.520;10.528;2023-03-14T04:54:26;6.53;;;1.38;;
76380;SDS011;65202;52.520;10.528;2023-03-14T04:56:53;5.95;;;1.27;;
76380;SDS011;65202;52.520;10.528;2023-03-14T04:59:20;4.63;;;1.27;;
76380;SDS011;65202;52.520;10.528;2023-03-14T05:01:47;6.60;;;1.27;;
76380;SDS011;65202;52.520;10.528;2023-03-14T05:04:16;4.05;;;1.10;;
76380;SDS011;65202;52.520;10.528;2023-03-14T05:06:43;2.13;;;0.95;;
76380;SDS011;65202;52.520;10.528;2023-03-14T05:09:11;4.13;;;1.00;;
76380;SDS011;65202;52.520;10.528;2023-03-14T05:11:38;4.65;;;0.95;;
76380;SDS011;65202;52.520;10.528;2023-03-14T05:14:05;3.17;;;1.05;;
76380;SDS011;65202;52.520;10.528;2023-03-14T05:16:32;8.98;;;4.32;;
76380;SDS011;65202;52.520;10.528;2023-03-14T05:19:00;7.90;;;3.67;;
76380;SDS011;65202;52.520;10.528;2023-03-14T05:21:28;3.65;;;0.90;;
76380;SDS011;65202;52.520;10.528;2023-03-14T05:23:57;1.70;;;0.70;;
76380;SDS011;65202;52.520;10.528;2023-03-14T05:26:24;3.58;;;1.10;;
76380;SDS011;65202;52.520;10.528;2023-03-14T05:28:52;5.03;;;2.10;;
76380;SDS011;65202;52.520;10.528;2023-03-14T05:31:19;4.50;;;1.80;;
76380;SDS011;65202;52.520;10.528;2023-03-14T05:33:46;6.40;;;2.63;;
76380;SDS011;65202;52.520;10.528;2023-03-14T05:36:13;7.13;;;3.35;;
76380;SDS011;65202;52.520;10.528;2023-03-14T05:38:40;2.13;;;1.17;;
76380;SDS011;65202;52.520;10.528;2023-03-14T05:41:08;1.88;;;0.70;;
76380;SDS011;65202;52.520;10.528;2023-03-14T05:43:35;1.80;;;0.60;;
76380;SDS011;65202;52.520;10.528;2023-03-14T05:46:02;2.15;;;0.50;;
76380;SDS011;65202;52.520;10.528;2023-03-14T05:48:30;2.38;;;0.70;;
76380;SDS011;65202;52.520;10.528;2023-03-14T05:50:57;1.35;;;0.60;;
76380;SDS011;65202;52.520;10.528;2023-03-14T05:53:26;3.58;;;0.80;;
76380;SDS011;65202;52.520;10.528;2023-03-14T05:55:53;6.85;;;1.00;;
76380;SDS011;65202;52.520;10.528;2023-03-14T05:58:23;3.60;;;0.90;;
76380;SDS011;65202;52.520;10.528;2023-03-14T06:00:51;4.50;;;1.15;;
76380;SDS011;65202;52.520;10.528;2023-03-14T06:03:18;4.60;;;1.10;;
76380;SDS011;65202;52.520;10.528;2023-03-14T06:05:45;4.78;;;1.13;;
76380;SDS011;65202;52.520;10.528;2023-03-14T06:08:12;3.92;;;1.23;;
76380;SDS011;65202;52.520;10.528;2023-03-14T06:10:42;3.97;;;0.90;;
76380;SDS011;65202;52.520;10.528;2023-03-14T06:13:09;2.63;;;1.02;;
76380;SDS011;65202;52.520;10.528;2023-03-14T06:15:36;4.05;;;1.10;;
76380;SDS011;65202;52.520;10.528;2023-03-14T06:18:04;4.75;;;0.90;;
76380;SDS011;65202;52.520;10.528;2023-03-14T06:20:31;6.43;;;1.10;;
76380;SDS011;65202;52.520;10.528;2023-03-14T06:22:59;8.88;;;1.85;;
76380;SDS011;65202;52.520;10.528;2023-03-14T06:25:27;9.05;;;1.73;;
76380;SDS011;65202;52.520;10.528;2023-03-14T06:27:54;7.50;;;1.20;;
76380;SDS011;65202;52.520;10.528;2023-03-14T06:30:21;4.10;;;1.10;;
76380;SDS011;65202;52.520;10.528;2023-03-14T06:32:48;8.15;;;1.65;;
76380;SDS011;65202;52.520;10.528;2023-03-14T06:35:15;5.43;;;1.50;;
76380;SDS011;65202;52.520;10.528;2023-03-14T06:37:43;6.57;;;1.35;;
76380;SDS011;65202;52.520;10.528;2023-03-14T06:40:10;5.15;;;1.30;;
76380;SDS011;65202;52.520;10.528;2023-03-14T06:42:44;5.15;;;1.23;;
76380;SDS011;65202;52.520;10.528;2023-03-14T06:45:12;5.28;;;1.25;;
76380;SDS011;65202;52.520;10.528;2023-03-14T06:47:40;5.82;;;1.35;;
76380;SDS011;65202;52.520;10.528;2023-03-14T06:50:07;6.47;;;1.30;;
76380;SDS011;65202;52.520;10.528;2023-03-14T06:52:36;5.53;;;1.27;;
76380;SDS011;65202;52.520;10.528;2023-03-14T06:55:04;6.18;;;1.25;;
76380;SDS011;65202;52.520;10.528;2023-03-14T06:57:32;6.32;;;1.13;;
76380;SDS011;65202;52.520;10.528;2023-03-14T06:59:59;3.75;;;1.02;;
76380;SDS011;65202;52.520;10.528;2023-03-14T07:02:26;5.85;;;1.40;;
76380;SDS011;65202;52.520;10.528;2023-03-14T07:05:08;5.32;;;2.28;;
76380;SDS011;65202;52.520;10.528;2023-03-14T07:07:37;4.88;;;1.25;;
76380;SDS011;65202;52.520;10.528;2023-03-14T07:10:04;7.60;;;1.70;;
76380;SDS011;65202;52.520;10.528;2023-03-14T07:12:32;11.10;;;1.17;;
76380;SDS011;65202;52.520;10.528;2023-03-14T07:14:59;4.85;;;1.52;;
76380;SDS011;65202;52.520;10.528;2023-03-14T07:17:43;5.90;;;1.30;;
76380;SDS011;65202;52.520;10.528;2023-03-14T07:20:10;8.57;;;1.52;;
76380;SDS011;65202;52.520;10.528;2023-03-14T07:22:37;3.80;;;1.20;;
76380;SDS011;65202;52.520;10.528;2023-03-14T07:25:04;2.95;;;0.95;;
76380;SDS011;65202;52.520;10.528;2023-03-14T07:27:32;4.38;;;1.50;;
76380;SDS011;65202;52.520;10.528;2023-03-14T07:29:59;4.47;;;1.23;;
76380;SDS011;65202;52.520;10.528;2023-03-14T07:32:26;4.53;;;1.55;;
76380;SDS011;65202;52.520;10.528;2023-03-14T07:34:54;4.03;;;1.30;;
76380;SDS011;65202;52.520;10.528;2023-03-14T07:37:21;11.30;;;3.88;;
76380;SDS011;65202;52.520;10.528;2023-03-14T07:39:48;8.43;;;3.13;;
76380;SDS011;65202;52.520;10.528;2023-03-14T07:42:15;5.53;;;1.40;;
76380;SDS011;65202;52.520;10.528;2023-03-14T07:44:42;4.85;;;0.88;;
76380;SDS011;65202;52.520;10.528;2023-03-14T07:47:10;3.40;;;0.90;;
76380;SDS011;65202;52.520;10.528;2023-03-14T07:49:38;3.35;;;0.95;;
76380;SDS011;65202;52.520;10.528;2023-03-14T07:52:05;4.18;;;1.10;;
76380;SDS011;65202;52.520;10.528;2023-03-14T07:54:32;5.28;;;1.02;;
76380;SDS011;65202;52.520;10.528;2023-03-14T07:56:59;3.40;;;0.85;;
76380;SDS011;65202;52.520;10.528;2023-03-14T07:59:27;3.90;;;0.90;;
76380;SDS011;65202;52.520;10.528;2023-03-14T08:01:54;5.07;;;1.42;;
76380;SDS011;65202;52.520;10.528;2023-03-14T08:04:22;2.47;;;0.70;;
76380;SDS011;65202;52.520;10.528;2023-03-14T08:06:49;1.05;;;0.50;;
76380;SDS011;65202;52.520;10.528;2023-03-14T08:09:16;2.92;;;1.58;;
76380;SDS011;65202;52.520;10.528;2023-03-14T08:11:43;2.25;;;0.60;;
76380;SDS011;65202;52.520;10.528;2023-03-14T08:14:10;2.15;;;0.77;;
76380;SDS011;65202;52.520;10.528;2023-03-14T08:16:38;2.92;;;1.00;;
76380;SDS011;65202;52.520;10.528;2023-03-14T08:19:05;4.07;;;1.17;;
76380;SDS011;65202;52.520;10.528;2023-03-14T08:21:32;4.85;;;0.80;;
76380;SDS011;65202;52.520;10.528;2023-03-14T08:23:59;5.38;;;0.80;;
76380;SDS011;65202;52.520;10.528;2023-03-14T08:26:27;3.55;;;1.02;;
76380;SDS011;65202;52.520;10.528;2023-03-14T08:28:54;2.85;;;0.82;;
76380;SDS011;65202;52.520;10.528;2023-03-14T08:31:21;12.43;;;5.32;;
76380;SDS011;65202;52.520;10.528;2023-03-14T08:33:49;7.70;;;2.80;;
76380;SDS011;65202;52.520;10.528;2023-03-14T08:36:19;2.30;;;0.80;;
76380;SDS011;65202;52.520;10.528;2023-03-14T08:38:49;4.43;;;1.10;;
76380;SDS011;65202;52.520;10.528;2023-03-14T08:41:17;7.45;;;1.15;;
76380;SDS011;65202;52.520;10.528;2023-03-14T08:43:44;7.40;;;1.10;;
76380;SDS011;65202;52.520;10.528;2023-03-14T08:46:11;6.90;;;1.00;;
76380;SDS011;65202;52.520;10.528;2023-03-14T08:48:38;4.32;;;1.33;;
76380;SDS011;65202;52.520;10.528;2023-03-14T08:51:10;3.95;;;1.00;;
76380;SDS011;65202;52.520;10.528;2023-03-14T08:53:40;4.70;;;1.00;;
76380;SDS011;65202;52.520;10.528;2023-03-14T08:56:08;6.60;;;1.30;;
76380;SDS011;65202;52.520;10.528;2023-03-14T08:58:37;5.13;;;1.10;;
76380;SDS011;65202;52.520;10.528;2023-03-14T09:01:05;6.00;;;1.35;;
76380;SDS011;65202;52.520;10.528;2023-03-14T09:03:34;6.70;;;1.33;;
76380;SDS011;65202;52.520;10.528;2023-03-14T09:06:03;4.25;;;1.05;;
76380;SDS011;65202;52.520;10.528;2023-03-14T09:08:31;6.78;;;2.30;;
76380;SDS011;65202;52.520;10.528;2023-03-14T09:11:00;4.97;;;1.10;;
76380;SDS011;65202;52.520;10.528;2023-03-14T09:13:27;7.70;;;1.60;;
76380;SDS011;65202;52.520;10.528;2023-03-14T09:15:55;4.07;;;1.10;;
76380;SDS011;65202;52.520;10.528;2023-03-14T09:18:24;5.63;;;1.25;;
76380;SDS011;65202;52.520;10.528;2023-03-14T09:20:51;6.30;;;1.30;;
76380;SDS011;65202;52.520;10.528;2023-03-14T09:23:18;3.50;;;1.30;;
76380;SDS011;65202;52.520;10.528;2023-03-14T09:25:46;3.78;;;1.10;;
76380;SDS011;65202;52.520;10.528;2023-03-14T09:28:13;5.65;;;1.50;;
76380;SDS011;65202;52.520;10.528;2023-03-14T09:30:40;4.53;;;1.23;;
76380;SDS011;65202;52.520;10.528;2023-03-14T09:33:07;6.43;;;1.40;;
76380;SDS011;65202;52.520;10.528;2023-03-14T09:35:34;4.93;;;1.17;;
76380;SDS011;65202;52.520;10.528;2023-03-14T09:38:02;6.70;;;1.15;;
76380;SDS011;65202;52.520;10.528;2023-03-14T09:40:31;4.53;;;1.10;;
76380;SDS011;65202;52.520;10.528;2023-03-14T09:43:02;3.38;;;1.02;;
76380;SDS011;65202;52.520;10.528;2023-03-14T09:45:34;6.00;;;1.10;;
76380;SDS011;65202;52.520;10.528;2023-03-14T09:48:05;3.38;;;1.00;;
76380;SDS011;65202;52.520;10.528;2023-03-14T09:50:43;2.88;;;0.80;;
76380;SDS011;65202;52.520;10.528;2023-03-14T09:53:35;3.50;;;0.90;;
76380;SDS011;65202;52.520;10.528;2023-03-14T09:56:12;4.05;;;0.90;;
76380;SDS011;65202;52.520;10.528;2023-03-14T09:58:48;4.13;;;0.90;;
76380;SDS011;65202;52.520;10.528;2023-03-14T10:01:26;1.88;;;0.80;;
76380;SDS011;65202;52.520;10.528;2023-03-14T10:04:02;3.20;;;1.10;;
76380;SDS011;65202;52.520;10.528;2023-03-14T10:06:40;4.55;;;0.90;;
76380;SDS011;65202;52.520;10.528;2023-03-14T10:09:15;4.20;;;1.00;;
76380;SDS011;65202;52.520;10.528;2023-03-14T10:11:53;2.50;;;0.85;;
76380;SDS011;65202;52.520;10.528;2023-03-14T10:14:33;5.25;;;0.98;;
76380;SDS011;65202;52.520;10.528;2023-03-14T10:17:08;4.88;;;2.08;;
76380;SDS011;65202;52.520;10.528;2023-03-14T10:19:58;4.82;;;1.10;;
76380;SDS011;65202;52.520;10.528;2023-03-14T10:22:28;2.75;;;0.90;;
76380;SDS011;65202;52.520;10.528;2023-03-14T10:25:05;3.55;;;1.00;;
76380;SDS011;65202;52.520;10.528;2023-03-14T10:27:52;2.50;;;0.82;;
76380;SDS011;65202;52.520;10.528;2023-03-14T10:30:39;3.15;;;1.77;;
76380;SDS011;65202;52.520;10.528;2023-03-14T10:40:46;3.38;;;1.63;;
76380;SDS011;65202;52.520;10.528;2023-03-14T10:43:19;3.72;;;2.42;;
76380;SDS011;65202;52.520;10.528;2023-03-14T10:45:57;8.40;;;2.83;;
76380;SDS011;65202;52.520;10.528;2023-03-14T10:48:33;5.65;;;3.45;;
76380;SDS011;65202;52.520;10.528;2023-03-14T10:53:47;2.97;;;1.00;;
76380;SDS011;65202;52.520;10.528;2023-03-14T10:56:32;2.75;;;0.88;;
76380;SDS011;65202;52.520;10.528;2023-03-14T10:59:03;1.38;;;0.73;;
76380;SDS011;65202;52.520;10.528;2023-03-14T11:02:14;1.33;;;0.82;;
76380;SDS011;65202;52.520;10.528;2023-03-14T11:05:10;1.50;;;0.80;;
76380;SDS011;65202;52.520;10.528;2023-03-14T11:07:55;1.85;;;0.85;;
76380;SDS011;65202;52.520;10.528;2023-03-14T11:10:33;1.15;;;0.80;;
76380;SDS011;65202;52.520;10.528;2023-03-14T11:16:02;2.17;;;1.40;;
76380;SDS011;65202;52.520;10.528;2023-03-14T11:18:48;3.60;;;2.00;;
76380;SDS011;65202;52.520;10.528;2023-03-14T11:21:37;2.92;;;1.17;;
76380;SDS011;65202;52.520;10.528;2023-03-14T11:24:25;1.27;;;1.10;;
76380;SDS011;65202;52.520;10.528;2023-03-14T11:27:32;1.98;;;0.85;;
76380;SDS011;65202;52.520;10.528;2023-03-14T11:30:17;2.15;;;0.70;;
76380;SDS011;65202;52.520;10.528;2023-03-14T11:33:05;1.00;;;0.77;;
76380;SDS011;65202;52.520;10.528;2023-03-14T11:35:45;0.90;;;0.70;;
76380;SDS011;65202;52.520;10.528;2023-03-14T11:41:20;0.82;;;0.60;;
76380;SDS011;65202;52.520;10.528;2023-03-14T11:44:34;2.75;;;0.77;;
76380;SDS011;65202;52.520;10.528;2023-03-14T11:47:11;1.38;;;0.77;;
76380;SDS011;65202;52.520;10.528;2023-03-14T11:52:50;1.50;;;0.90;;
76380;SDS011;65202;52.520;10.528;2023-03-14T11:55:34;1.00;;;0.90;;
76380;SDS011;65202;52.520;10.528;2023-03-14T11:58:21;1.13;;;1.00;;
76380;SDS011;65202;52.520;10.528;2023-03-14T12:00:54;2.97;;;1.20;;
76380;SDS011;65202;52.520;10.528;2023-03-14T12:03:39;2.15;;;0.73;;
76380;SDS011;65202;52.520;10.528;2023-03-14T12:06:44;7.03;;;1.73;;
76380;SDS011;65202;52.520;10.528;2023-03-14T12:09:18;1.85;;;0.80;;
76380;SDS011;65202;52.520;10.528;2023-03-14T12:11:59;1.83;;;0.70;;
76380;SDS011;65202;52.520;10.528;2023-03-14T12:14:32;1.58;;;0.60;;
76380;SDS011;65202;52.520;10.528;2023-03-14T12:17:21;1.92;;;0.60;;
76380;SDS011;65202;52.520;10.528;2023-03-14T12:22:46;3.40;;;0.75;;
76380;SDS011;65202;52.520;10.528;2023-03-14T12:25:21;1.27;;;0.50;;
76380;SDS011;65202;52.520;10.528;2023-03-14T12:35:38;1.05;;;0.55;;
76380;SDS011;65202;52.520;10.528;2023-03-14T12:38:37;2.42;;;0.65;;
76380;SDS011;65202;52.520;10.528;2023-03-14T12:41:20;1.33;;;0.60;;
76380;SDS011;65202;52.520;10.528;2023-03-14T12:46:59;1.20;;;0.40;;
76380;SDS011;65202;52.520;10.528;2023-03-14T12:50:00;1.45;;;0.50;;
76380;SDS011;65202;52.520;10.528;2023-03-14T12:59:03;4.03;;;0.60;;
76380;SDS011;65202;52.520;10.528;2023-03-14T13:04:36;2.38;;;0.60;;
76380;SDS011;65202;52.520;10.528;2023-03-14T13:10:03;2.42;;;0.77;;
76380;SDS011;65202;52.520;10.528;2023-03-14T13:12:56;1.65;;;0.73;;
76380;SDS011;65202;52.520;10.528;2023-03-14T13:15:42;0.82;;;0.60;;
76380;SDS011;65202;52.520;10.528;2023-03-14T13:18:14;1.50;;;0.70;;
76380;SDS011;65202;52.520;10.528;2023-03-14T13:20:48;2.03;;;0.80;;
76380;SDS011;65202;52.520;10.528;2023-03-14T13:23:28;2.17;;;0.80;;
76380;SDS011;65202;52.520;10.528;2023-03-14T13:25:59;1.80;;;0.80;;
76380;SDS011;65202;52.520;10.528;2023-03-14T13:28:29;0.95;;;0.80;;
76380;SDS011;65202;52.520;10.528;2023-03-14T13:30:59;0.90;;;0.40;;
76380;SDS011;65202;52.520;10.528;2023-03-14T13:33:32;1.30;;;0.60;;
76380;SDS011;65202;52.520;10.528;2023-03-14T13:36:02;2.67;;;0.80;;
76380;SDS011;65202;52.520;10.528;2023-03-14T13:38:33;3.97;;;0.80;;
76380;SDS011;65202;52.520;10.528;2023-03-14T13:41:06;5.60;;;1.00;;
76380;SDS011;65202;52.520;10.528;2023-03-14T13:43:41;3.85;;;0.90;;
76380;SDS011;65202;52.520;10.528;2023-03-14T13:46:14;5.20;;;1.75;;
76380;SDS011;65202;52.520;10.528;2023-03-14T13:48:48;3.17;;;0.80;;
76380;SDS011;65202;52.520;10.528;2023-03-14T13:51:20;7.88;;;1.48;;
76380;SDS011;65202;52.520;10.528;2023-03-14T13:53:50;6.82;;;1.05;;
76380;SDS011;65202;52.520;10.528;2023-03-14T13:56:23;8.65;;;1.40;;
76380;SDS011;65202;52.520;10.528;2023-03-14T13:58:53;5.30;;;1.35;;
76380;SDS011;65202;52.520;10.528;2023-03-14T14:01:31;8.00;;;1.40;;
76380;SDS011;65202;52.520;10.528;2023-03-14T14:04:06;7.10;;;1.48;;
76380;SDS011;65202;52.520;10.528;2023-03-14T14:06:54;5.22;;;1.08;;
76380;SDS011;65202;52.520;10.528;2023-03-14T14:09:31;9.25;;;1.60;;
76380;SDS011;65202;52.520;10.528;2023-03-14T14:12:06;8.48;;;1.60;;
76380;SDS011;65202;52.520;10.528;2023-03-14T14:18:04;7.10;;;1.50;;
76380;SDS011;65202;52.520;10.528;2023-03-14T14:20:41;10.27;;;1.58;;
76380;SDS011;65202;52.520;10.528;2023-03-14T14:23:14;11.75;;;2.33;;
76380;SDS011;65202;52.520;10.528;2023-03-14T14:25:53;6.88;;;1.75;;
76380;SDS011;65202;52.520;10.528;2023-03-14T14:31:23;9.27;;;2.00;;
76380;SDS011;65202;52.520;10.528;2023-03-14T14:33:55;9.55;;;1.70;;
76380;SDS011;65202;52.520;10.528;2023-03-14T14:39:18;11.25;;;1.70;;
76380;SDS011;65202;52.520;10.528;2023-03-14T14:41:53;11.27;;;1.90;;
76380;SDS011;65202;52.520;10.528;2023-03-14T14:44:27;10.57;;;2.13;;
76380;SDS011;65202;52.520;10.528;2023-03-14T14:46:59;10.40;;;1.77;;
76380;SDS011;65202;52.520;10.528;2023-03-14T14:49:30;12.20;;;2.35;;
76380;SDS011;65202;52.520;10.528;2023-03-14T14:52:00;15.70;;;2.50;;
76380;SDS011;65202;52.520;10.528;2023-03-14T14:54:46;18.05;;;2.55;;
76380;SDS011;65202;52.520;10.528;2023-03-14T14:57:25;14.40;;;2.53;;
76380;SDS011;65202;52.520;10.528;2023-03-14T15:00:00;21.10;;;3.38;;
76380;SDS011;65202;52.520;10.528;2023-03-14T15:02:40;14.98;;;2.33;;
76380;SDS011;65202;52.520;10.528;2023-03-14T15:05:17;23.55;;;3.17;;
76380;SDS011;65202;52.520;10.528;2023-03-14T15:07:47;18.55;;;2.60;;
76380;SDS011;65202;52.520;10.528;2023-03-14T15:10:16;20.30;;;3.05;;
76380;SDS011;65202;52.520;10.528;2023-03-14T15:12:47;20.88;;;2.70;;
76380;SDS011;65202;52.520;10.528;2023-03-14T15:15:14;17.75;;;2.70;;
76380;SDS011;65202;52.520;10.528;2023-03-14T15:17:44;20.85;;;2.67;;
76380;SDS011;65202;52.520;10.528;2023-03-14T15:20:12;15.82;;;2.90;;
76380;SDS011;65202;52.520;10.528;2023-03-14T15:22:42;20.67;;;3.10;;
76380;SDS011;65202;52.520;10.528;2023-03-14T15:25:09;18.75;;;2.63;;
76380;SDS011;65202;52.520;10.528;2023-03-14T15:27:57;13.43;;;2.10;;
76380;SDS011;65202;52.520;10.528;2023-03-14T15:30:24;24.48;;;2.88;;
76380;SDS011;65202;52.520;10.528;2023-03-14T15:32:51;15.13;;;2.33;;
76380;SDS011;65202;52.520;10.528;2023-03-14T15:35:19;16.17;;;2.60;;
76380;SDS011;65202;52.520;10.528;2023-03-14T15:37:46;18.85;;;2.97;;
76380;SDS011;65202;52.520;10.528;2023-03-14T15:40:13;13.85;;;2.63;;
76380;SDS011;65202;52.520;10.528;2023-03-14T15:42:42;13.50;;;2.60;;
76380;SDS011;65202;52.520;10.528;2023-03-14T15:45:09;17.45;;;2.50;;
76380;SDS011;65202;52.520;10.528;2023-03-14T15:47:36;18.27;;;2.28;;
76380;SDS011;65202;52.520;10.528;2023-03-14T15:50:04;13.82;;;2.83;;
76380;SDS011;65202;52.520;10.528;2023-03-14T15:52:31;18.58;;;2.28;;
76380;SDS011;65202;52.520;10.528;2023-03-14T15:54:58;17.05;;;2.53;;
76380;SDS011;65202;52.520;10.528;2023-03-14T15:57:27;16.35;;;2.58;;
76380;SDS011;65202;52.520;10.528;2023-03-14T15:59:54;15.77;;;2.50;;